Time;durP1;ratioP1;P1;durP2;ratioP2;P2;SDS_P1;SDS_P2;PMS_P1;PMS_P2;Temp;Humidity;BMP_temperature;BMP_pressure;BME280_temperature;BME280_humidity;BME280_pressure;Samples;Min_cycle;Max_cycle;Signal;HPM_P1;HPM_P2
2021/07/26 00:00:40;;;;;;;;;0.00;0.00;;;;;28.09;42.67;100199.94;5036209;28;45387;-60
2021/07/26 00:03:06;;;;;;;;;0.00;0.00;;;;;28.08;42.87;100201.81;5054425;28;45535;-61
2021/07/26 00:05:31;;;;;;;;;0.00;0.00;;;;;28.06;42.41;100190.09;5054522;28;45543;-61
2021/07/26 00:07:56;;;;;;;;;0.00;0.00;;;;;28.07;42.68;100200.03;5054091;28;45355;-60
2021/07/26 00:10:22;;;;;;;;;0.00;0.00;;;;;28.03;42.47;100190.28;5054385;28;45130;-61
2021/07/26 00:12:47;;;;;;;;;0.00;0.00;;;;;28.06;42.86;100201.03;5054525;28;45547;-61
2021/07/26 00:15:13;;;;;;;;;0.00;0.00;;;;;28.04;42.96;100197.53;5054277;28;45525;-60
2021/07/26 00:17:38;;;;;;;;;0.00;0.00;;;;;28.05;42.80;100198.41;5054986;28;46271;-60
2021/07/26 00:20:04;;;;;;;;;0.00;0.00;;;;;28.04;42.94;100205.72;5057799;28;45531;-61
2021/07/26 00:22:30;;;;;;;;;0.00;0.00;;;;;28.04;42.78;100197.53;5057537;28;45423;-61
2021/07/26 00:24:55;;;;;;;;;0.00;0.00;;;;;28.02;42.44;100196.75;5057713;28;45470;-61
2021/07/26 00:27:20;;;;;;;;;0.00;0.00;;;;;28.03;42.40;100203.09;5057474;28;46339;-61
2021/07/26 00:29:46;;;;;;;;;0.00;0.00;;;;;28.01;42.53;100192.25;5057371;28;45463;-61
2021/07/26 00:32:11;;;;;;;;;0.00;0.00;;;;;28.02;43.00;100204.97;5057261;28;45434;-61
2021/07/26 00:34:36;;;;;;;;;0.00;0.00;;;;;28.02;42.46;100206.81;5057470;28;45501;-62
2021/07/26 00:37:02;;;;;;;;;0.00;0.00;;;;;28.02;42.43;100206.81;5057069;28;45445;-61
2021/07/26 00:39:30;;;;;;;;;0.00;0.00;;;;;28.00;43.01;100204.19;5057021;28;45620;-61
2021/07/26 00:41:57;;;;;;;;;1.00;0.00;;;;;28.01;42.95;100205.91;5039081;28;45401;-61
2021/07/26 00:44:24;;;;;;;;;0.00;0.00;;;;;28.00;42.46;100206.91;5057460;28;45485;-61
2021/07/26 00:46:51;;;;;;;;;0.00;0.00;;;;;27.99;42.73;100199.69;5055458;28;46230;-62
2021/07/26 00:49:18;;;;;;;;;0.00;0.00;;;;;27.99;43.03;100205.16;5056765;28;45483;-62
2021/07/26 00:51:52;;;;;;;;;0.00;0.00;;;;;27.99;42.76;100194.22;5057250;28;45442;-61
2021/07/26 00:54:20;;;;;;;;;0.00;0.00;;;;;27.99;42.38;100202.41;5039005;28;45393;-61
2021/07/26 00:56:46;;;;;;;;;0.00;0.00;;;;;27.97;42.57;100196.19;5056775;28;46002;-61
2021/07/26 00:59:14;;;;;;;;;0.00;0.00;;;;;27.98;43.16;100203.41;5057145;28;45726;-61
2021/07/26 01:01:40;;;;;;;;;0.00;0.00;;;;;27.97;42.62;100196.19;5057009;28;45499;-61
2021/07/26 01:04:05;;;;;;;;;0.00;0.00;;;;;27.98;42.75;100191.59;5057082;28;45445;-61
2021/07/26 01:06:31;;;;;;;;;0.00;0.00;;;;;27.97;42.49;100193.44;5056695;28;45369;-61
2021/07/26 01:08:57;;;;;;;;;0.00;0.00;;;;;27.98;43.15;100195.22;5056678;28;45494;-60
2021/07/26 01:11:23;;;;;;;;;0.00;0.00;;;;;27.96;42.99;100194.44;5057101;28;45437;-61
2021/07/26 01:13:49;;;;;;;;;0.00;0.00;;;;;27.98;43.10;100191.59;5057053;28;45467;-60
2021/07/26 01:16:14;;;;;;;;;0.00;0.00;;;;;27.95;42.63;100192.66;5056503;28;45408;-61
2021/07/26 01:18:39;;;;;;;;;0.00;0.00;;;;;27.98;42.58;100203.41;5056719;28;45393;-62
2021/07/26 01:21:14;;;;;;;;;0.00;0.00;;;;;27.98;43.10;100203.41;5056870;28;45670;-62
2021/07/26 01:23:49;;;;;;;;;0.00;0.00;;;;;27.98;43.13;100197.06;5056875;28;45657;-62
2021/07/26 01:26:17;;;;;;;;;0.00;0.00;;;;;27.97;43.05;100190.72;5055384;28;46115;-62
2021/07/26 01:28:44;;;;;;;;;0.00;0.00;;;;;27.96;42.63;100202.63;5054552;28;46018;-61
2021/07/26 01:31:10;;;;;;;;;0.00;0.00;;;;;27.96;42.92;100201.78;5056280;28;45469;-61
2021/07/26 01:33:38;;;;;;;;;0.00;0.00;;;;;27.95;42.71;100198.13;5056778;28;45374;-61
2021/07/26 01:36:04;;;;;;;;;0.00;0.00;;;;;27.94;43.05;100196.41;5056743;28;45414;-61
2021/07/26 01:38:29;;;;;;;;;0.00;0.00;;;;;27.96;43.05;100209.97;5055846;28;45534;-60
2021/07/26 01:41:01;;;;;;;;;0.00;0.00;;;;;27.96;43.18;100205.38;5056795;28;45375;-60
2021/07/26 01:43:32;;;;;;;;;1.00;0.00;;;;;27.96;43.18;100207.25;5056631;28;45398;-62
2021/07/26 01:46:09;;;;;;;;;0.00;0.00;;;;;27.95;42.63;100211.81;5055518;28;46517;-61
2021/07/26 01:48:55;;;;;;;;;0.00;0.00;;;;;27.94;43.10;100207.31;5054916;28;45461;-61
2021/07/26 01:51:31;;;;;;;;;0.00;0.00;;;;;27.92;43.17;100214.75;5056176;28;45441;-61
2021/07/26 01:53:57;;;;;;;;;0.00;0.00;;;;;27.92;43.25;100209.28;5056295;28;45528;-61
2021/07/26 01:56:24;;;;;;;;;0.00;0.00;;;;;27.93;43.05;100216.50;5056597;28;45402;-62
2021/07/26 01:58:50;;;;;;;;;0.00;0.00;;;;;27.91;42.49;100219.34;5056065;28;45459;-61
2021/07/26 02:01:15;;;;;;;;;0.00;0.00;;;;;27.92;43.26;100222.97;5055925;28;45392;-60
2021/07/26 02:03:41;;;;;;;;;0.00;0.00;;;;;27.90;42.56;100216.72;5056276;28;45405;-61
2021/07/26 02:06:06;;;;;;;;;0.00;0.00;;;;;27.90;42.78;100219.44;5056273;28;45406;-62
2021/07/26 02:08:33;;;;;;;;;0.00;0.00;;;;;27.89;43.10;100223.16;5055864;28;45433;-62
2021/07/26 02:10:58;;;;;;;;;0.00;0.00;;;;;27.87;43.14;100234.16;5037998;28;45413;-61
2021/07/26 02:13:24;;;;;;;;;0.00;0.00;;;;;27.88;43.07;100224.13;5056050;28;45418;-61
2021/07/26 02:15:49;;;;;;;;;0.00;0.00;;;;;27.87;42.59;100238.78;5055890;28;45521;-61
2021/07/26 02:18:14;;;;;;;;;0.00;0.00;;;;;27.85;42.67;100236.09;5056117;28;45385;-61
2021/07/26 02:20:41;;;;;;;;;0.00;0.00;;;;;27.86;43.11;100237.88;5055790;28;45529;-62
2021/07/26 02:23:06;;;;;;;;;0.00;0.00;;;;;27.85;43.30;100243.44;5055978;28;45460;-62
2021/07/26 02:25:31;;;;;;;;;0.00;0.00;;;;;27.84;42.96;100247.16;5055354;28;46434;-62
2021/07/26 02:27:58;;;;;;;;;0.00;0.00;;;;;27.83;43.18;100250.84;5055458;28;45505;-62
2021/07/26 02:30:23;;;;;;;;;0.00;0.00;;;;;27.83;42.70;100248.97;5055996;28;45484;-62
2021/07/26 02:32:50;;;;;;;;;0.00;0.00;;;;;27.83;42.64;100250.84;5055637;28;45489;-60
2021/07/26 02:35:15;;;;;;;;;0.00;0.00;;;;;27.81;42.85;100247.34;5055408;28;46338;-61
2021/07/26 02:37:40;;;;;;;;;0.00;0.00;;;;;27.82;43.04;100249.09;5054857;28;45368;-62
2021/07/26 02:40:06;;;;;;;;;0.00;0.00;;;;;27.81;42.78;100250.06;5055076;28;45832;-62
2021/07/26 02:42:32;;;;;;;;;0.00;0.00;;;;;27.80;43.04;100251.06;5055738;28;45470;-63
2021/07/26 02:45:00;;;;;;;;;0.00;0.00;;;;;27.82;42.54;100251.84;5055271;28;45460;-62
2021/07/26 02:47:25;;;;;;;;;0.00;0.00;;;;;27.81;42.64;100250.94;5054956;28;45461;-61
2021/07/26 02:49:51;;;;;;;;;0.00;0.00;;;;;27.81;43.14;100247.34;5055310;28;45401;-62
2021/07/26 02:52:16;;;;;;;;;0.00;0.00;;;;;27.81;43.13;100245.47;5055595;28;45417;-60
2021/07/26 02:54:41;;;;;;;;;0.00;0.00;;;;;27.80;42.85;100242.88;5054969;28;46097;-61
2021/07/26 02:57:08;;;;;;;;;0.00;0.00;;;;;27.81;42.62;100244.59;5054978;28;45432;-62
2021/07/26 02:59:33;;;;;;;;;0.00;0.00;;;;;27.81;42.64;100250.94;5055642;28;45558;-62
2021/07/26 03:01:59;;;;;;;;;0.00;0.00;;;;;27.80;43.19;100245.59;5055204;28;45417;-61
2021/07/26 03:04:24;;;;;;;;;0.00;0.00;;;;;27.80;43.11;100248.34;5037088;28;47270;-61
2021/07/26 03:06:49;;;;;;;;;0.00;0.00;;;;;27.80;43.35;100251.06;5055291;28;45339;-61
2021/07/26 03:09:16;;;;;;;;;0.00;0.00;;;;;27.81;42.98;100244.59;5055330;28;45425;-61
2021/07/26 03:11:41;;;;;;;;;0.00;0.00;;;;;27.81;43.39;100252.81;5055446;28;45348;-62
2021/07/26 03:14:06;;;;;;;;;0.00;0.00;;;;;27.80;42.83;100253.78;5054755;28;45319;-61
2021/07/26 03:16:32;;;;;;;;;0.00;0.00;;;;;27.82;43.04;100243.66;5054821;28;45447;-60
2021/07/26 03:18:57;;;;;;;;;0.00;0.00;;;;;27.81;42.64;100239.13;5036493;28;45422;-61
2021/07/26 03:21:24;;;;;;;;;0.00;0.00;;;;;27.81;42.58;100239.13;5037147;28;45510;-61
2021/07/26 03:23:51;;;;;;;;;0.00;0.00;;;;;27.80;42.99;100238.28;5054837;28;45749;-60
2021/07/26 03:26:17;;;;;;;;;0.00;0.00;;;;;27.78;43.26;100242.09;5054641;28;45338;-61
2021/07/26 03:28:42;;;;;;;;;0.00;0.00;;;;;27.78;42.57;100240.22;5055119;28;45432;-60
2021/07/26 03:31:08;;;;;;;;;0.00;0.00;;;;;27.80;42.52;100254.66;5054867;28;45410;-59
2021/07/26 03:33:34;;;;;;;;;0.00;0.00;;;;;27.80;42.87;100251.06;5054706;28;45459;-60
2021/07/26 03:36:00;;;;;;;;;0.00;0.00;;;;;27.80;42.72;100248.34;5054778;28;45446;-60
2021/07/26 03:38:25;;;;;;;;;0.00;0.00;;;;;27.80;42.59;100248.34;5054614;28;45414;-61
2021/07/26 03:40:51;;;;;;;;;0.00;0.00;;;;;27.79;42.99;100252.91;5054631;28;45420;-61
2021/07/26 03:43:17;;;;;;;;;0.00;0.00;;;;;27.78;42.44;100251.16;5054688;28;46594;-60
2021/07/26 03:45:44;;;;;;;;;0.00;0.00;;;;;27.76;42.71;100241.31;5054761;28;45480;-62
2021/07/26 03:48:09;;;;;;;;;0.00;0.00;;;;;27.76;42.65;100246.78;5053326;28;45484;-60
2021/07/26 03:50:35;;;;;;;;;0.00;0.00;;;;;27.77;43.16;100251.25;5054150;28;45690;-60
2021/07/26 03:53:00;;;;;;;;;0.00;0.00;;;;;27.76;42.65;100242.19;5057917;28;45485;-62
2021/07/26 03:55:32;;;;;;;;;0.00;0.00;;;;;27.77;42.73;100257.59;5060801;28;45485;-63
2021/07/26 03:57:58;;;;;;;;;0.00;0.00;;;;;27.73;43.14;100254.19;5061205;28;45436;-61
2021/07/26 04:00:25;;;;;;;;;0.00;0.00;;;;;27.76;42.54;100257.72;5061147;28;45464;-61
2021/07/26 04:03:03;;;;;;;;;0.00;0.00;;;;;27.74;42.58;100260.53;5060686;28;46311;-61
2021/07/26 04:05:34;;;;;;;;;0.00;0.00;;;;;27.73;43.14;100253.31;5061244;28;45477;-61
2021/07/26 04:08:12;;;;;;;;;0.00;0.00;;;;;27.72;42.61;100260.63;5061340;28;45405;-61
2021/07/26 04:10:40;;;;;;;;;0.00;0.00;;;;;27.72;42.55;100257.91;5061123;28;45458;-62
2021/07/26 04:13:06;;;;;;;;;0.00;0.00;;;;;27.72;42.70;100257.03;5060690;28;45437;-62
2021/07/26 04:15:31;;;;;;;;;0.00;0.00;;;;;27.70;42.99;100262.59;5060769;28;45432;-62
2021/07/26 04:17:57;;;;;;;;;0.00;0.00;;;;;27.70;42.55;100256.25;5042575;28;45414;-62
2021/07/26 04:20:22;;;;;;;;;0.00;0.00;;;;;27.70;43.10;100251.66;5043213;28;44848;-61
2021/07/26 04:22:48;;;;;;;;;0.00;0.00;;;;;27.69;42.56;100255.38;5059393;28;46694;-62
2021/07/26 04:25:13;;;;;;;;;0.67;0.00;;;;;27.70;42.62;100261.72;5042789;28;45502;-62
2021/07/26 04:27:39;;;;;;;;;0.00;0.00;;;;;27.70;43.19;100253.53;5060955;28;45506;-61
2021/07/26 04:30:06;;;;;;;;;0.00;0.00;;;;;27.71;43.20;100266.19;5061113;28;45588;-61
2021/07/26 04:32:40;;;;;;;;;0.00;0.00;;;;;27.71;43.22;100274.38;5060606;28;46050;-61
2021/07/26 04:35:06;;;;;;;;;0.00;0.00;;;;;27.70;43.09;100269.91;5060159;28;45580;-61
2021/07/26 04:37:31;;;;;;;;;0.00;0.00;;;;;27.71;43.09;100266.19;5060635;28;45578;-61
2021/07/26 04:39:57;;;;;;;;;0.00;0.00;;;;;27.70;43.23;100259.84;5060511;28;45374;-61
2021/07/26 04:42:22;;;;;;;;;0.00;0.00;;;;;27.69;42.91;100269.03;5060553;28;45508;-61
2021/07/26 04:44:47;;;;;;;;;0.00;0.00;;;;;27.70;42.62;100265.31;5042345;28;46040;-61
2021/07/26 04:47:13;;;;;;;;;0.00;0.00;;;;;27.70;43.30;100259.84;5060613;28;45805;-61
2021/07/26 04:49:38;;;;;;;;;0.00;0.00;;;;;27.70;42.75;100268.06;5060486;28;45383;-61
2021/07/26 04:52:04;;;;;;;;;0.00;0.00;;;;;27.71;43.12;100266.19;5060364;28;45477;-60
2021/07/26 04:54:30;;;;;;;;;0.00;0.00;;;;;27.71;43.17;100266.19;5060241;28;45441;-60
2021/07/26 04:56:56;;;;;;;;;0.00;0.00;;;;;27.71;43.06;100271.66;5060429;28;45373;-60
2021/07/26 04:59:21;;;;;;;;;0.00;0.00;;;;;27.70;43.22;100270.78;5061460;28;45439;-60
2021/07/26 05:01:46;;;;;;;;;0.00;0.00;;;;;27.70;42.54;100284.44;5042080;28;47080;-61
2021/07/26 05:04:12;;;;;;;;;0.00;0.00;;;;;27.72;43.08;100284.34;5058607;28;45443;-62
2021/07/26 05:06:38;;;;;;;;;0.00;0.00;;;;;27.73;43.00;100292.47;5057353;28;45454;-61
2021/07/26 05:09:04;;;;;;;;;0.00;0.00;;;;;27.73;42.66;100292.47;5039338;28;45479;-62
2021/07/26 05:11:29;;;;;;;;;0.00;0.00;;;;;27.72;42.56;100278.88;5056915;28;46036;-62
2021/07/26 05:13:54;;;;;;;;;0.00;0.00;;;;;27.72;43.05;100285.22;5057272;28;45461;-62
2021/07/26 05:16:20;;;;;;;;;0.00;0.00;;;;;27.72;43.17;100284.34;5057229;28;45409;-62
2021/07/26 05:18:45;;;;;;;;;0.00;0.00;;;;;27.72;43.18;100293.41;5056804;28;45525;-61
2021/07/26 05:21:11;;;;;;;;;0.00;0.00;;;;;27.72;42.93;100290.69;5056526;28;45553;-61
2021/07/26 05:23:36;;;;;;;;;0.00;0.00;;;;;27.69;42.69;100288.16;5056813;28;45551;-60
2021/07/26 05:26:01;;;;;;;;;0.00;0.00;;;;;27.72;42.58;100298.00;5056829;28;45452;-61
2021/07/26 05:28:27;;;;;;;;;0.00;0.00;;;;;27.72;42.98;100292.53;5056641;28;45524;-61
2021/07/26 05:30:53;;;;;;;;;0.00;0.00;;;;;27.72;42.52;100298.00;5038315;28;46347;-60
2021/07/26 05:33:19;;;;;;;;;0.00;0.00;;;;;27.72;42.76;100300.75;5056620;28;45512;-60
2021/07/26 05:35:45;;;;;;;;;0.00;0.00;;;;;27.72;42.97;100296.16;5056479;28;45437;-60
2021/07/26 05:38:10;;;;;;;;;0.00;0.00;;;;;27.71;42.51;100293.50;5056270;28;45503;-60
2021/07/26 05:40:36;;;;;;;;;0.00;0.00;;;;;27.71;43.04;100294.41;5038304;28;47198;-60
2021/07/26 05:43:03;;;;;;;;;0.00;0.00;;;;;27.71;42.81;100297.13;5055942;28;45493;-60
2021/07/26 05:45:29;;;;;;;;;0.00;0.00;;;;;27.71;42.52;100299.88;5056744;28;45673;-61
2021/07/26 05:47:54;;;;;;;;;0.00;0.00;;;;;27.71;43.04;100304.44;5056556;28;45739;-61
2021/07/26 05:50:19;;;;;;;;;0.00;0.00;;;;;27.70;42.56;100300.84;5056183;28;47030;-62
2021/07/26 05:52:46;;;;;;;;;0.00;0.00;;;;;27.71;42.41;100299.88;5056297;28;45464;-61
2021/07/26 05:55:14;;;;;;;;;0.00;0.00;;;;;27.71;43.12;100290.78;5056640;28;45498;-62
2021/07/26 05:57:44;;;;;;;;;0.33;0.33;;;;;27.71;42.90;100294.41;5055288;28;45441;-59
2021/07/26 06:00:13;;;;;;;;;0.00;0.00;;;;;27.70;42.97;100292.63;5056290;28;46071;-61
2021/07/26 06:02:38;;;;;;;;;0.00;0.00;;;;;27.72;42.42;100287.94;5038444;28;46009;-62
2021/07/26 06:05:04;;;;;;;;;0.00;0.00;;;;;27.73;43.10;100295.19;5056407;28;45756;-61
2021/07/26 06:07:29;;;;;;;;;0.00;0.00;;;;;27.73;42.59;100297.91;5056859;28;45389;-61
2021/07/26 06:09:55;;;;;;;;;0.00;0.00;;;;;27.73;42.52;100295.19;5056164;28;45426;-60
2021/07/26 06:12:22;;;;;;;;;0.00;0.00;;;;;27.74;42.74;100305.13;5056009;28;45456;-61
2021/07/26 06:14:48;;;;;;;;;0.00;0.00;;;;;27.77;43.02;100298.56;5056127;28;45453;-61
2021/07/26 06:17:13;;;;;;;;;0.00;0.00;;;;;27.77;42.31;100300.44;5056116;28;45445;-60
2021/07/26 06:19:38;;;;;;;;;0.00;0.00;;;;;27.78;42.64;100299.47;5056392;28;45771;-60
2021/07/26 06:22:04;;;;;;;;;0.00;0.00;;;;;27.78;43.00;100300.34;5056273;28;45758;-60
2021/07/26 06:24:29;;;;;;;;;0.00;0.00;;;;;27.80;43.11;100303.00;5056384;28;45535;-61
2021/07/26 06:26:55;;;;;;;;;0.00;0.00;;;;;27.81;42.90;100308.31;5056008;28;45489;-60
2021/07/26 06:29:22;;;;;;;;;0.00;0.00;;;;;27.83;42.66;100309.09;5055794;28;46001;-61
2021/07/26 06:31:48;;;;;;;;;0.00;0.00;;;;;27.83;42.88;100302.78;5056274;28;45343;-61
2021/07/26 06:34:14;;;;;;;;;0.00;0.00;;;;;27.84;42.89;100307.28;5037891;28;45442;-61
2021/07/26 06:36:40;;;;;;;;;0.00;0.00;;;;;27.82;42.46;100304.63;5055911;28;45420;-62
2021/07/26 06:39:05;;;;;;;;;0.00;0.00;;;;;27.85;42.73;100311.75;5055336;28;45605;-61
2021/07/26 06:41:31;;;;;;;;;0.00;0.00;;;;;27.85;42.42;100309.00;5037207;28;45370;-61
2021/07/26 06:43:56;;;;;;;;;0.00;0.00;;;;;27.86;42.56;100313.50;5037509;28;45488;-62
2021/07/26 06:46:22;;;;;;;;;0.00;0.00;;;;;27.86;42.74;100310.78;5055625;28;45425;-60
2021/07/26 06:48:48;;;;;;;;;0.67;0.00;;;;;27.88;42.67;100315.19;5055105;28;45467;-61
2021/07/26 06:51:15;;;;;;;;;0.00;0.00;;;;;27.86;42.67;100318.97;5055181;28;45549;-60
2021/07/26 06:53:40;;;;;;;;;0.00;0.00;;;;;27.88;42.21;100319.78;5055972;28;45446;-61
2021/07/26 06:56:08;;;;;;;;;0.00;0.00;;;;;27.88;42.42;100322.53;5055481;28;45474;-60
2021/07/26 06:58:34;;;;;;;;;0.00;0.00;;;;;27.88;42.62;100317.06;5054872;28;45863;-62
2021/07/26 07:01:13;;;;;;;;;0.00;0.00;;;;;27.87;42.27;100323.50;5055264;28;45491;-62
2021/07/26 07:03:40;;;;;;;;;0.00;0.00;;;;;27.87;42.27;100327.09;5054625;28;45770;-62
2021/07/26 07:06:08;;;;;;;;;0.00;0.00;;;;;27.87;42.73;100328.94;5056042;28;45475;-62
2021/07/26 07:08:34;;;;;;;;;0.00;0.00;;;;;27.87;42.04;100337.16;5036130;28;45751;-63
2021/07/26 07:11:05;;;;;;;;;0.00;0.00;;;;;27.86;42.69;100336.25;5054729;28;45909;-61
2021/07/26 07:13:39;;;;;;;;;0.00;0.00;;;;;27.86;43.16;100338.13;5054808;28;45460;-62
2021/07/26 07:16:17;;;;;;;;;0.00;0.00;;;;;27.87;43.02;100337.16;5053932;28;45628;-63
2021/07/26 07:18:43;;;;;;;;;0.00;0.00;;;;;27.88;42.60;100338.94;5053974;28;46140;-62
2021/07/26 07:21:16;;;;;;;;;0.00;0.00;;;;;27.87;43.14;100339.88;5054184;28;45442;-61
2021/07/26 07:23:41;;;;;;;;;0.33;0.33;;;;;27.88;43.08;100336.19;5054476;28;44922;-61
2021/07/26 07:26:13;;;;;;;;;1.00;0.00;;;;;27.91;42.99;100346.91;5054141;28;45499;-62
2021/07/26 07:28:39;;;;;;;;;0.67;0.00;;;;;27.89;42.99;100347.00;5032595;28;48260;-62
2021/07/26 07:31:04;;;;;;;;;0.00;0.00;;;;;27.91;42.80;100350.53;5046032;28;45489;-60
2021/07/26 07:33:29;;;;;;;;;0.00;0.00;;;;;27.93;43.05;100348.59;5041059;28;45794;-62
2021/07/26 07:35:55;;;;;;;;;0.00;0.00;;;;;27.92;42.99;100345.94;5051305;28;45454;-60
2021/07/26 07:38:20;;;;;;;;;0.00;0.00;;;;;27.96;43.87;100358.44;5042578;28;45075;-62
2021/07/26 07:40:46;;;;;;;;;0.00;0.00;;;;;27.97;43.85;100351.97;5053845;28;45411;-65
2021/07/26 07:43:15;;;;;;;;;0.00;0.00;;;;;28.00;43.10;100356.38;5053803;28;45502;-66
2021/07/26 07:45:41;;;;;;;;;0.00;0.00;;;;;28.01;43.62;100361.72;5032945;28;45396;-63
2021/07/26 07:48:06;;;;;;;;;0.00;0.00;;;;;28.03;44.11;100357.03;5032552;28;45484;-63
2021/07/26 07:50:33;;;;;;;;;0.00;0.00;;;;;28.05;44.01;100360.56;5034664;28;45359;-62
2021/07/26 07:52:58;;;;;;;;;1.00;1.00;;;;;28.06;43.40;100356.84;5044200;28;45452;-62
2021/07/26 07:55:24;;;;;;;;;0.00;0.00;;;;;28.08;43.35;100354.91;5054161;28;45719;-62
2021/07/26 07:57:52;;;;;;;;;0.00;0.00;;;;;28.10;43.25;100357.53;5035089;28;45448;-63
2021/07/26 08:00:18;;;;;;;;;0.00;0.00;;;;;28.12;43.40;100355.59;5053420;28;45413;-62
2021/07/26 08:02:44;;;;;;;;;1.67;0.67;;;;;28.16;43.59;100365.34;5053809;28;45417;-63
2021/07/26 08:05:10;;;;;;;;;0.33;0.33;;;;;28.19;43.05;100364.25;5053754;28;46262;-64
2021/07/26 08:07:38;;;;;;;;;0.33;0.33;;;;;28.20;43.83;100361.44;5053332;28;45414;-63
2021/07/26 08:10:05;;;;;;;;;0.67;0.67;;;;;28.22;43.92;100361.31;5053466;28;45743;-64
2021/07/26 08:12:32;;;;;;;;;0.00;0.00;;;;;28.24;43.70;100367.59;5053022;28;45710;-61
2021/07/26 08:14:59;;;;;;;;;0.00;0.00;;;;;28.27;43.21;100372.84;5061060;28;45511;-62
2021/07/26 08:17:24;;;;;;;;;0.00;0.00;;;;;28.28;43.75;100363.66;5048035;28;46266;-63
2021/07/26 08:19:50;;;;;;;;;1.00;1.00;;;;;28.28;43.45;100366.41;5073013;28;45449;-63
2021/07/26 08:22:15;;;;;;;;;0.00;0.00;;;;;28.31;43.39;100371.66;5049698;28;45543;-62
2021/07/26 08:24:40;;;;;;;;;0.33;0.00;;;;;28.32;43.24;100365.22;5053452;28;45425;-63
2021/07/26 08:27:07;;;;;;;;;0.00;0.00;;;;;28.34;43.58;100379.66;5052598;28;45453;-63
2021/07/26 08:29:33;;;;;;;;;0.00;0.00;;;;;28.37;43.08;100373.97;5035627;28;45779;-62
2021/07/26 08:31:58;;;;;;;;;0.67;0.00;;;;;28.38;43.25;100375.75;5025466;28;45584;-62
2021/07/26 08:34:23;;;;;;;;;0.00;0.00;;;;;28.40;43.52;100379.25;5052838;28;45463;-62
2021/07/26 08:36:49;;;;;;;;;0.67;0.67;;;;;28.40;43.43;100371.06;5060986;28;45487;-63
2021/07/26 08:39:14;;;;;;;;;0.00;0.00;;;;;28.43;43.02;100379.03;5066719;28;45583;-62
2021/07/26 08:41:40;;;;;;;;;0.67;0.67;;;;;28.46;43.51;100381.59;5056653;28;45488;-62
2021/07/26 08:44:06;;;;;;;;;0.00;0.00;;;;;28.47;43.23;100386.06;5056513;28;45544;-61
2021/07/26 08:46:32;;;;;;;;;0.00;0.00;;;;;28.49;43.29;100380.50;5056219;28;45489;-62
2021/07/26 08:48:58;;;;;;;;;3.67;0.67;;;;;28.49;43.15;100378.63;5055786;28;45428;-63
2021/07/26 08:51:24;;;;;;;;;0.33;0.33;;;;;28.52;43.15;100383.94;5038256;28;45475;-62
2021/07/26 08:53:50;;;;;;;;;1.00;1.00;;;;;28.53;43.00;100385.69;5056602;28;45551;-64
2021/07/26 08:56:17;;;;;;;;;0.00;0.00;;;;;28.53;43.55;100385.69;5047241;28;45911;-63
2021/07/26 08:58:42;;;;;;;;;0.67;0.67;;;;;28.56;43.29;100384.63;5051918;28;45479;-61
2021/07/26 09:01:11;;;;;;;;;0.00;0.00;;;;;28.59;43.57;100389.00;5055944;28;45620;-62
2021/07/26 09:03:37;;;;;;;;;0.00;0.00;;;;;28.59;43.48;100389.88;5056289;28;45390;-63
2021/07/26 09:06:02;;;;;;;;;1.00;0.00;;;;;28.61;42.95;100400.72;5055523;28;45477;-63
2021/07/26 09:08:36;;;;;;;;;2.00;1.00;;;;;28.63;42.99;100398.78;5056338;28;45496;-61
2021/07/26 09:13:47;;;;;;;;;2.00;2.00;;;;;28.64;43.60;100405.97;5056184;28;45502;-64
2021/07/26 09:16:19;;;;;;;;;1.67;1.67;;;;;28.67;43.88;100408.53;5054330;28;45597;-67
2021/07/26 09:18:46;;;;;;;;;2.33;2.33;;;;;28.68;43.92;100405.69;5056154;28;45433;-61
2021/07/26 09:21:12;;;;;;;;;0.67;0.67;;;;;28.69;43.84;100406.56;5038607;28;45488;-63
2021/07/26 09:24:04;;;;;;;;;1.00;1.00;;;;;28.72;43.72;100406.34;5055917;28;45456;-62
2021/07/26 09:26:48;;;;;;;;;1.00;1.00;;;;;28.71;44.09;100400.00;5036825;28;46940;-67
2021/07/26 09:29:30;;;;;;;;;0.67;0.67;;;;;28.73;43.68;100413.59;5028660;28;45563;-66
2021/07/26 09:32:05;;;;;;;;;2.00;0.00;;;;;28.75;44.05;100414.34;5028430;28;45419;-63
2021/07/26 09:34:30;;;;;;;;;0.00;0.00;;;;;28.77;43.49;100415.13;5055652;28;45685;-66
2021/07/26 09:36:56;;;;;;;;;2.00;0.67;;;;;28.78;43.69;100416.00;5055279;28;46833;-62
2021/07/26 09:39:29;;;;;;;;;0.67;0.67;;;;;28.79;44.23;100413.16;5055484;28;45717;-63
2021/07/26 09:42:00;;;;;;;;;0.67;0.67;;;;;28.80;43.98;100412.16;5055369;28;45354;-62
2021/07/26 09:44:28;;;;;;;;;3.00;2.00;;;;;28.80;43.58;100406.69;5055540;28;45444;-61
2021/07/26 09:47:14;;;;;;;;;0.67;0.67;;;;;28.80;44.22;100403.97;5055136;28;45870;-63
2021/07/26 09:49:40;;;;;;;;;1.33;1.33;;;;;28.81;43.86;100408.47;5055160;28;45421;-61
2021/07/26 09:52:08;;;;;;;;;1.00;1.00;;;;;28.80;43.30;100398.50;5058891;28;45368;-66
2021/07/26 09:54:49;;;;;;;;;0.67;0.67;;;;;28.81;43.81;100399.38;5043224;28;45859;-68
2021/07/26 09:57:44;;;;;;;;;;;;;;;;;;;;;
2021/07/26 10:00:28;;;;;;;;;0.00;0.00;;;;;28.72;43.37;100395.41;5059652;28;71081;-66
2021/07/26 10:02:55;;;;;;;;;1.00;1.00;;;;;28.75;43.60;100397.06;5036751;28;45398;-67
2021/07/26 10:05:27;;;;;;;;;0.00;0.00;;;;;28.82;43.45;100404.72;5039321;28;45496;-68
2021/07/26 10:08:11;;;;;;;;;0.33;0.00;;;;;28.65;43.75;100378.53;5038731;28;45551;-69
2021/07/26 10:10:40;;;;;;;;;1.33;1.33;;;;;28.86;43.62;100414.50;5055927;28;45475;-65
2021/07/26 10:13:11;;;;;;;;;0.67;0.67;;;;;28.84;43.69;100405.50;5038260;28;45682;-67
2021/07/26 10:15:37;;;;;;;;;0.00;0.00;;;;;28.82;43.45;100404.72;5055685;28;45496;-63
2021/07/26 10:18:03;;;;;;;;;1.00;1.00;;;;;28.81;43.80;100405.72;5047402;28;45509;-64
2021/07/26 10:20:34;;;;;;;;;1.33;1.33;;;;;28.87;43.64;100418.13;5034445;28;45697;-63
2021/07/26 10:23:21;;;;;;;;;1.00;1.00;;;;;28.87;43.54;100410.78;5050974;28;45569;-63
2021/07/26 10:25:58;;;;;;;;;3.00;0.33;;;;;28.85;43.72;100400.94;5053403;28;45583;-63
2021/07/26 10:28:30;;;;;;;;;2.00;2.00;;;;;28.88;43.46;100396.13;5054317;28;46451;-62
2021/07/26 10:30:56;;;;;;;;;0.00;0.00;;;;;28.88;43.67;100401.63;5054076;28;45703;-62
2021/07/26 10:33:22;;;;;;;;;1.00;1.00;;;;;28.87;43.64;100397.09;5054238;28;45470;-63
2021/07/26 10:35:55;;;;;;;;;0.67;0.33;;;;;28.89;43.34;100397.88;5054307;28;45453;-63
2021/07/26 10:38:45;;;;;;;;;0.00;0.00;;;;;28.91;43.57;100409.59;5053448;28;45520;-62
2021/07/26 10:41:30;;;;;;;;;0.67;0.67;;;;;28.92;43.60;100396.78;5033287;28;45497;-63
2021/07/26 10:43:58;;;;;;;;;0.67;0.67;;;;;28.92;43.52;100396.78;5004094;28;45502;-63
2021/07/26 10:46:23;;;;;;;;;1.67;1.67;;;;;28.95;43.84;100401.19;5049343;28;45838;-64
2021/07/26 10:48:53;;;;;;;;;0.00;0.00;;;;;28.96;43.57;100402.94;5029644;28;47435;-64
2021/07/26 10:51:41;;;;;;;;;1.67;0.67;;;;;28.97;43.90;100393.75;5034859;28;45391;-64
2021/07/26 10:54:29;;;;;;;;;1.33;1.33;;;;;28.98;43.81;100406.44;5039364;28;45427;-64
2021/07/26 10:57:01;;;;;;;;;0.67;0.67;;;;;28.93;43.24;100402.16;5031968;28;45578;-63
2021/07/26 10:59:27;;;;;;;;;0.67;0.67;;;;;28.93;43.23;100398.56;5013580;28;45609;-64
2021/07/26 11:01:57;;;;;;;;;0.33;0.33;;;;;28.98;43.40;100400.97;5011557;28;45454;-64
2021/07/26 11:04:36;;;;;;;;;0.33;0.33;;;;;28.99;43.54;100408.22;5015337;28;45570;-63
2021/07/26 11:07:10;;;;;;;;;0.00;0.00;;;;;28.99;43.14;100397.25;5042937;28;45462;-64
2021/07/26 11:09:44;;;;;;;;;0.67;0.67;;;;;28.99;43.75;100402.75;5027309;28;45910;-65
2021/07/26 11:12:09;;;;;;;;;0.00;0.00;;;;;28.99;43.14;100402.75;5049561;28;45416;-63
2021/07/26 11:14:35;;;;;;;;;0.00;0.00;;;;;28.99;43.55;100398.13;5031537;28;45411;-64
2021/07/26 11:17:03;;;;;;;;;1.00;1.00;;;;;29.00;43.74;100390.78;5031641;28;45466;-64
2021/07/26 11:19:37;;;;;;;;;1.33;1.33;;;;;29.00;43.71;100397.13;5030886;28;45795;-64
2021/07/26 11:22:26;;;;;;;;;1.00;1.00;;;;;29.01;43.59;100409.84;5030640;28;45399;-65
2021/07/26 11:24:54;;;;;;;;;0.00;0.00;;;;;28.96;44.18;100394.72;5035443;28;45498;-63
2021/07/26 11:27:22;;;;;;;;;0.33;0.33;;;;;29.01;44.64;100396.16;5033601;28;45416;-64
2021/07/26 11:29:50;;;;;;;;;1.33;1.33;;;;;29.02;44.54;100400.63;5012729;28;46897;-64
2021/07/26 11:32:19;;;;;;;;;2.67;2.67;;;;;29.04;44.59;100398.69;5026566;28;45471;-64